sensor_id;sensor_type;location;lat;lon;timestamp;pressure;altitude;pressure_sealevel;temperature;humidity
4449;BME280;2237;51.870;6.160;2024-02-23T00:02:05;98630.56;;;5.95;100.00
4449;BME280;2237;51.870;6.160;2024-02-23T00:04:32;98634.72;;;5.99;100.00
4449;BME280;2237;51.870;6.160;2024-02-23T00:06:59;98638.53;;;5.89;100.00
4449;BME280;2237;51.870;6.160;2024-02-23T00:09:25;98632.47;;;5.90;100.00
4449;BME280;2237;51.870;6.160;2024-02-23T00:11:53;98648.59;;;5.97;100.00
4449;BME280;2237;51.870;6.160;2024-02-23T00:14:30;98655.91;;;5.86;100.00
4449;BME280;2237;51.870;6.160;2024-02-23T00:17:03;98670.56;;;5.85;100.00
4449;BME280;2237;51.870;6.160;2024-02-23T00:19:31;98678.31;;;5.85;100.00
4449;BME280;2237;51.870;6.160;2024-02-23T00:21:57;98668.63;;;5.90;100.00
4449;BME280;2237;51.870;6.160;2024-02-23T00:24:26;98665.06;;;5.94;100.00
4449;BME280;2237;51.870;6.160;2024-02-23T00:26:52;98667.44;;;5.99;100.00
4449;BME280;2237;51.870;6.160;2024-02-23T00:29:19;98671.84;;;5.97;100.00
4449;BME280;2237;51.870;6.160;2024-02-23T00:31:46;98667.41;;;6.00;100.00
4449;BME280;2237;51.870;6.160;2024-02-23T00:34:12;98684.75;;;5.97;100.00
4449;BME280;2237;51.870;6.160;2024-02-23T00:36:40;98670.00;;;6.00;100.00
4449;BME280;2237;51.870;6.160;2024-02-23T00:39:08;98670.69;;;6.04;100.00
4449;BME280;2237;51.870;6.160;2024-02-23T00:41:34;98679.25;;;6.06;100.00
4449;BME280;2237;51.870;6.160;2024-02-23T00:44:02;98657.22;;;5.96;100.00
4449;BME280;2237;51.870;6.160;2024-02-23T00:46:29;98669.50;;;5.91;100.00
4449;BME280;2237;51.870;6.160;2024-02-23T00:48:56;98683.69;;;6.02;100.00
4449;BME280;2237;51.870;6.160;2024-02-23T00:51:22;98677.00;;;5.97;100.00
4449;BME280;2237;51.870;6.160;2024-02-23T00:53:49;98689.75;;;6.01;100.00
4449;BME280;2237;51.870;6.160;2024-02-23T00:56:15;98694.13;;;5.99;100.00
4449;BME280;2237;51.870;6.160;2024-02-23T00:58:42;98694.00;;;6.02;100.00
4449;BME280;2237;51.870;6.160;2024-02-23T01:01:08;98699.22;;;6.01;100.00
4449;BME280;2237;51.870;6.160;2024-02-23T01:03:35;98712.50;;;5.92;100.00
4449;BME280;2237;51.870;6.160;2024-02-23T01:06:02;98715.88;;;5.94;100.00
4449;BME280;2237;51.870;6.160;2024-02-23T01:08:28;98713.44;;;5.89;100.00
4449;BME280;2237;51.870;6.160;2024-02-23T01:10:55;98709.31;;;5.84;100.00
4449;BME280;2237;51.870;6.160;2024-02-23T01:13:21;98727.41;;;5.84;100.00
4449;BME280;2237;51.870;6.160;2024-02-23T01:15:48;98714.72;;;5.78;100.00
4449;BME280;2237;51.870;6.160;2024-02-23T01:18:14;98722.41;;;5.79;100.00
4449;BME280;2237;51.870;6.160;2024-02-23T01:20:41;98719.66;;;5.84;100.00
4449;BME280;2237;51.870;6.160;2024-02-23T01:23:07;98729.97;;;5.84;100.00
4449;BME280;2237;51.870;6.160;2024-02-23T01:25:34;98733.28;;;5.89;100.00
4449;BME280;2237;51.870;6.160;2024-02-23T01:28:02;98736.91;;;5.83;100.00
4449;BME280;2237;51.870;6.160;2024-02-23T01:30:29;98743.16;;;6.01;100.00
4449;BME280;2237;51.870;6.160;2024-02-23T01:32:56;98726.09;;;5.97;100.00
4449;BME280;2237;51.870;6.160;2024-02-23T01:35:22;98739.75;;;6.00;100.00
4449;BME280;2237;51.870;6.160;2024-02-23T01:37:49;98747.84;;;5.91;100.00
4449;BME280;2237;51.870;6.160;2024-02-23T01:40:15;98735.16;;;5.84;100.00
4449;BME280;2237;51.870;6.160;2024-02-23T01:42:42;98740.38;;;5.82;100.00
4449;BME280;2237;51.870;6.160;2024-02-23T01:45:08;98737.38;;;5.94;100.00
4449;BME280;2237;51.870;6.160;2024-02-23T01:47:35;98746.66;;;6.00;100.00
4449;BME280;2237;51.870;6.160;2024-02-23T01:50:02;98743.44;;;5.93;100.00
4449;BME280;2237;51.870;6.160;2024-02-23T01:52:29;98753.88;;;5.90;100.00
4449;BME280;2237;51.870;6.160;2024-02-23T01:54:56;98754.78;;;5.89;100.00
4449;BME280;2237;51.870;6.160;2024-02-23T01:57:23;98747.97;;;5.87;100.00
4449;BME280;2237;51.870;6.160;2024-02-23T02:00:11;98754.25;;;5.80;100.00
4449;BME280;2237;51.870;6.160;2024-02-23T02:02:41;98762.53;;;5.89;100.00
4449;BME280;2237;51.870;6.160;2024-02-23T02:05:08;98761.81;;;5.86;100.00
4449;BME280;2237;51.870;6.160;2024-02-23T02:07:35;98769.63;;;5.83;100.00
4449;BME280;2237;51.870;6.160;2024-02-23T02:10:02;98769.28;;;5.93;100.00
4449;BME280;2237;51.870;6.160;2024-02-23T02:12:30;98769.22;;;5.95;100.00
4449;BME280;2237;51.870;6.160;2024-02-23T02:14:56;98777.25;;;5.87;100.00
4449;BME280;2237;51.870;6.160;2024-02-23T02:17:23;98777.25;;;5.87;100.00
4449;BME280;2237;51.870;6.160;2024-02-23T02:19:49;98770.06;;;5.95;100.00
4449;BME280;2237;51.870;6.160;2024-02-23T02:22:16;98771.63;;;5.99;100.00
4449;BME280;2237;51.870;6.160;2024-02-23T02:24:43;98770.69;;;6.02;100.00
4449;BME280;2237;51.870;6.160;2024-02-23T02:27:12;98767.97;;;6.05;100.00
4449;BME280;2237;51.870;6.160;2024-02-23T02:29:39;98760.53;;;5.97;100.00
4449;BME280;2237;51.870;6.160;2024-02-23T02:32:05;98762.47;;;5.91;100.00
4449;BME280;2237;51.870;6.160;2024-02-23T02:34:32;98779.19;;;6.04;100.00
4449;BME280;2237;51.870;6.160;2024-02-23T02:37:00;98774.00;;;6.05;100.00
4449;BME280;2237;51.870;6.160;2024-02-23T02:39:27;98784.97;;;6.12;100.00
4449;BME280;2237;51.870;6.160;2024-02-23T02:41:54;98782.41;;;6.10;100.00
4449;BME280;2237;51.870;6.160;2024-02-23T02:44:20;98776.34;;;6.11;100.00
4449;BME280;2237;51.870;6.160;2024-02-23T02:46:47;98774.31;;;6.19;100.00
4449;BME280;2237;51.870;6.160;2024-02-23T02:49:13;98785.28;;;6.26;100.00
4449;BME280;2237;51.870;6.160;2024-02-23T02:51:40;98789.91;;;6.18;100.00
4449;BME280;2237;51.870;6.160;2024-02-23T02:54:06;98794.22;;;6.17;100.00
4449;BME280;2237;51.870;6.160;2024-02-23T02:56:33;98790.06;;;6.13;100.00
4449;BME280;2237;51.870;6.160;2024-02-23T02:59:00;98793.19;;;6.21;100.00
4449;BME280;2237;51.870;6.160;2024-02-23T03:01:26;98792.63;;;6.13;100.00
4449;BME280;2237;51.870;6.160;2024-02-23T03:03:52;98799.38;;;5.94;100.00
4449;BME280;2237;51.870;6.160;2024-02-23T03:06:19;98795.44;;;6.07;100.00
4449;BME280;2237;51.870;6.160;2024-02-23T03:08:45;98794.78;;;6.02;100.00
4449;BME280;2237;51.870;6.160;2024-02-23T03:11:12;98795.75;;;6.00;100.00
4449;BME280;2237;51.870;6.160;2024-02-23T03:13:38;98800.50;;;5.87;100.00
4449;BME280;2237;51.870;6.160;2024-02-23T03:16:05;98802.22;;;5.87;100.00
4449;BME280;2237;51.870;6.160;2024-02-23T03:18:31;98810.81;;;5.87;100.00
4449;BME280;2237;51.870;6.160;2024-02-23T03:20:58;98806.09;;;5.98;100.00
4449;BME280;2237;51.870;6.160;2024-02-23T03:23:24;98810.22;;;5.79;100.00
4449;BME280;2237;51.870;6.160;2024-02-23T03:25:51;98809.28;;;5.82;100.00
4449;BME280;2237;51.870;6.160;2024-02-23T03:28:17;98811.81;;;5.83;100.00
4449;BME280;2237;51.870;6.160;2024-02-23T03:30:44;98809.94;;;5.88;100.00
4449;BME280;2237;51.870;6.160;2024-02-23T03:33:10;98805.44;;;5.93;100.00
4449;BME280;2237;51.870;6.160;2024-02-23T03:35:37;98806.50;;;5.88;100.00
4449;BME280;2237;51.870;6.160;2024-02-23T03:38:03;98814.50;;;5.80;100.00
4449;BME280;2237;51.870;6.160;2024-02-23T03:40:30;98808.41;;;5.81;100.00
4449;BME280;2237;51.870;6.160;2024-02-23T03:42:56;98818.94;;;5.77;100.00
4449;BME280;2237;51.870;6.160;2024-02-23T03:45:23;98837.69;;;5.82;100.00
4449;BME280;2237;51.870;6.160;2024-02-23T03:47:49;98831.78;;;5.78;100.00
4449;BME280;2237;51.870;6.160;2024-02-23T03:50:16;98835.00;;;5.85;100.00
4449;BME280;2237;51.870;6.160;2024-02-23T03:52:42;98836.72;;;5.84;100.00
4449;BME280;2237;51.870;6.160;2024-02-23T03:55:09;98844.41;;;5.87;100.00
4449;BME280;2237;51.870;6.160;2024-02-23T03:57:35;98841.50;;;5.96;100.00
4449;BME280;2237;51.870;6.160;2024-02-23T04:00:03;98848.78;;;5.84;100.00
4449;BME280;2237;51.870;6.160;2024-02-23T04:02:29;98858.41;;;5.80;100.00
4449;BME280;2237;51.870;6.160;2024-02-23T04:04:56;98860.50;;;5.69;100.00
4449;BME280;2237;51.870;6.160;2024-02-23T04:07:22;98857.47;;;5.83;100.00
4449;BME280;2237;51.870;6.160;2024-02-23T04:09:49;98859.34;;;5.78;100.00
4449;BME280;2237;51.870;6.160;2024-02-23T04:12:21;98848.19;;;5.77;100.00
4449;BME280;2237;51.870;6.160;2024-02-23T04:14:48;98854.91;;;5.81;100.00
4449;BME280;2237;51.870;6.160;2024-02-23T04:17:15;98853.34;;;5.77;100.00
4449;BME280;2237;51.870;6.160;2024-02-23T04:19:42;98865.13;;;5.86;100.00
4449;BME280;2237;51.870;6.160;2024-02-23T04:22:09;98871.22;;;5.83;100.00
4449;BME280;2237;51.870;6.160;2024-02-23T04:24:38;98859.06;;;5.87;100.00
4449;BME280;2237;51.870;6.160;2024-02-23T04:27:05;98863.56;;;5.80;100.00
4449;BME280;2237;51.870;6.160;2024-02-23T04:29:32;98870.63;;;5.75;100.00
4449;BME280;2237;51.870;6.160;2024-02-23T04:32:00;98879.88;;;5.81;100.00
4449;BME280;2237;51.870;6.160;2024-02-23T04:34:27;98885.31;;;5.99;100.00
4449;BME280;2237;51.870;6.160;2024-02-23T04:36:54;98880.53;;;5.89;100.00
4449;BME280;2237;51.870;6.160;2024-02-23T04:39:21;98894.66;;;6.03;100.00
4449;BME280;2237;51.870;6.160;2024-02-23T04:41:47;98893.84;;;6.01;100.00
4449;BME280;2237;51.870;6.160;2024-02-23T04:44:14;98895.75;;;5.96;100.00
4449;BME280;2237;51.870;6.160;2024-02-23T04:46:40;98902.06;;;6.12;100.00
4449;BME280;2237;51.870;6.160;2024-02-23T04:49:07;98891.91;;;6.08;100.00
4449;BME280;2237;51.870;6.160;2024-02-23T04:51:33;98894.66;;;6.03;100.00
4449;BME280;2237;51.870;6.160;2024-02-23T04:53:59;98907.63;;;6.02;100.00
4449;BME280;2237;51.870;6.160;2024-02-23T04:56:26;98907.50;;;6.05;100.00
4449;BME280;2237;51.870;6.160;2024-02-23T04:58:52;98921.28;;;6.05;100.00
4449;BME280;2237;51.870;6.160;2024-02-23T05:01:19;98915.13;;;6.09;100.00
4449;BME280;2237;51.870;6.160;2024-02-23T05:03:46;98915.69;;;6.17;100.00
4449;BME280;2237;51.870;6.160;2024-02-23T05:06:12;98914.00;;;6.16;100.00
4449;BME280;2237;51.870;6.160;2024-02-23T05:08:39;98909.25;;;6.29;100.00
4449;BME280;2237;51.870;6.160;2024-02-23T05:11:07;98918.63;;;6.32;100.00
4449;BME280;2237;51.870;6.160;2024-02-23T05:13:33;98919.50;;;6.31;100.00
4449;BME280;2237;51.870;6.160;2024-02-23T05:16:00;98911.75;;;6.31;100.00
4449;BME280;2237;51.870;6.160;2024-02-23T05:18:26;98910.88;;;6.32;100.00
4449;BME280;2237;51.870;6.160;2024-02-23T05:20:53;98911.53;;;6.37;100.00
4449;BME280;2237;51.870;6.160;2024-02-23T05:23:20;98904.44;;;6.42;100.00
4449;BME280;2237;51.870;6.160;2024-02-23T05:25:47;98905.25;;;6.44;100.00
4449;BME280;2237;51.870;6.160;2024-02-23T05:28:13;98905.94;;;6.49;100.00
4449;BME280;2237;51.870;6.160;2024-02-23T05:30:40;98895.69;;;6.46;100.00
4449;BME280;2237;51.870;6.160;2024-02-23T05:33:07;98889.97;;;6.38;100.00
4449;BME280;2237;51.870;6.160;2024-02-23T05:35:34;98903.22;;;6.29;100.00
4449;BME280;2237;51.870;6.160;2024-02-23T05:38:01;98894.47;;;6.33;100.00
4449;BME280;2237;51.870;6.160;2024-02-23T05:40:27;98894.84;;;6.45;100.00
4449;BME280;2237;51.870;6.160;2024-02-23T05:42:54;98893.34;;;6.40;100.00
4449;BME280;2237;51.870;6.160;2024-02-23T05:45:21;98888.16;;;6.40;100.00
4449;BME280;2237;51.870;6.160;2024-02-23T05:47:48;98898.19;;;6.49;100.00
4449;BME280;2237;51.870;6.160;2024-02-23T05:50:15;98905.19;;;6.45;100.00
4449;BME280;2237;51.870;6.160;2024-02-23T05:52:42;98903.91;;;6.57;100.00
4449;BME280;2237;51.870;6.160;2024-02-23T05:55:09;98892.38;;;6.65;100.00
4449;BME280;2237;51.870;6.160;2024-02-23T05:57:35;98895.69;;;6.46;100.00
4449;BME280;2237;51.870;6.160;2024-02-23T06:00:03;98891.72;;;6.60;100.00
4449;BME280;2237;51.870;6.160;2024-02-23T06:02:30;98897.66;;;6.62;100.00
4449;BME280;2237;51.870;6.160;2024-02-23T06:04:57;98899.66;;;6.56;100.00
4449;BME280;2237;51.870;6.160;2024-02-23T06:07:23;98885.06;;;6.53;100.00
4449;BME280;2237;51.870;6.160;2024-02-23T06:09:55;98882.47;;;6.53;100.00
4449;BME280;2237;51.870;6.160;2024-02-23T06:12:23;98895.81;;;6.66;100.00
4449;BME280;2237;51.870;6.160;2024-02-23T06:14:50;98888.13;;;6.64;100.00
4449;BME280;2237;51.870;6.160;2024-02-23T06:17:17;98884.28;;;6.51;100.00
4449;BME280;2237;51.870;6.160;2024-02-23T06:19:44;98896.59;;;6.68;100.00
4449;BME280;2237;51.870;6.160;2024-02-23T06:22:11;98880.94;;;6.71;100.00
4449;BME280;2237;51.870;6.160;2024-02-23T06:24:38;98888.47;;;6.77;100.00
4449;BME280;2237;51.870;6.160;2024-02-23T06:27:04;98889.63;;;6.70;100.00
4449;BME280;2237;51.870;6.160;2024-02-23T06:29:31;98875.66;;;6.74;100.00
4449;BME280;2237;51.870;6.160;2024-02-23T06:31:57;98886.75;;;6.77;100.00
4449;BME280;2237;51.870;6.160;2024-02-23T06:34:24;98892.53;;;6.84;100.00
4449;BME280;2237;51.870;6.160;2024-02-23T06:36:51;98894.09;;;6.88;100.00
4449;BME280;2237;51.870;6.160;2024-02-23T06:39:18;98904.75;;;6.80;100.00
4449;BME280;2237;51.870;6.160;2024-02-23T06:41:44;98893.00;;;6.72;100.00
4449;BME280;2237;51.870;6.160;2024-02-23T06:44:11;98904.66;;;6.82;100.00
4449;BME280;2237;51.870;6.160;2024-02-23T06:46:37;98902.59;;;6.92;100.00
4449;BME280;2237;51.870;6.160;2024-02-23T06:49:04;98918.09;;;6.92;100.00
4449;BME280;2237;51.870;6.160;2024-02-23T06:51:31;98908.69;;;6.91;100.00
4449;BME280;2237;51.870;6.160;2024-02-23T06:53:58;98912.16;;;7.11;100.00
4449;BME280;2237;51.870;6.160;2024-02-23T06:56:24;98927.91;;;7.05;100.00
4449;BME280;2237;51.870;6.160;2024-02-23T06:58:51;98924.94;;;7.16;100.00
4449;BME280;2237;51.870;6.160;2024-02-23T07:01:20;98913.59;;;6.97;100.00
4449;BME280;2237;51.870;6.160;2024-02-23T07:03:46;98920.59;;;7.16;100.00
4449;BME280;2237;51.870;6.160;2024-02-23T07:06:15;98919.88;;;7.13;100.00
4449;BME280;2237;51.870;6.160;2024-02-23T07:08:44;98922.50;;;7.11;100.00
4449;BME280;2237;51.870;6.160;2024-02-23T07:11:12;98918.25;;;7.10;100.00
4449;BME280;2237;51.870;6.160;2024-02-23T07:13:38;98914.94;;;7.28;100.00
4449;BME280;2237;51.870;6.160;2024-02-23T07:16:06;98917.44;;;7.52;100.00
4449;BME280;2237;51.870;6.160;2024-02-23T07:18:32;98925.81;;;7.58;100.00
4449;BME280;2237;51.870;6.160;2024-02-23T07:20:59;98923.47;;;7.74;100.00
4449;BME280;2237;51.870;6.160;2024-02-23T07:23:25;98931.34;;;7.71;100.00
4449;BME280;2237;51.870;6.160;2024-02-23T07:25:52;98926.44;;;7.85;100.00
4449;BME280;2237;51.870;6.160;2024-02-23T07:28:19;98917.31;;;7.76;100.00
4449;BME280;2237;51.870;6.160;2024-02-23T07:30:46;98917.50;;;7.72;100.00
4449;BME280;2237;51.870;6.160;2024-02-23T07:33:13;98927.34;;;7.84;100.00
4449;BME280;2237;51.870;6.160;2024-02-23T07:35:39;98932.44;;;7.65;100.00
4449;BME280;2237;51.870;6.160;2024-02-23T07:38:06;98937.56;;;7.67;100.00
4449;BME280;2237;51.870;6.160;2024-02-23T07:40:32;98927.78;;;7.73;100.00
4449;BME280;2237;51.870;6.160;2024-02-23T07:42:59;98936.41;;;7.74;100.00
4449;BME280;2237;51.870;6.160;2024-02-23T07:45:25;98940.28;;;7.84;100.00
4449;BME280;2237;51.870;6.160;2024-02-23T07:47:52;98927.34;;;7.84;100.00
4449;BME280;2237;51.870;6.160;2024-02-23T07:50:19;98922.22;;;7.82;100.00
4449;BME280;2237;51.870;6.160;2024-02-23T07:52:45;98930.59;;;7.69;100.00
4449;BME280;2237;51.870;6.160;2024-02-23T07:55:12;98937.13;;;7.77;100.00
4449;BME280;2237;51.870;6.160;2024-02-23T07:57:42;98939.00;;;7.74;100.00
4449;BME280;2237;51.870;6.160;2024-02-23T08:00:09;98923.22;;;7.80;100.00
4449;BME280;2237;51.870;6.160;2024-02-23T08:02:36;98932.38;;;7.87;100.00
4449;BME280;2237;51.870;6.160;2024-02-23T08:05:03;98929.50;;;7.94;100.00
4449;BME280;2237;51.870;6.160;2024-02-23T08:07:30;98915.44;;;8.00;100.00
4449;BME280;2237;51.870;6.160;2024-02-23T08:09:57;98921.09;;;8.10;100.00
4449;BME280;2237;51.870;6.160;2024-02-23T08:12:23;98908.56;;;7.79;100.00
4449;BME280;2237;51.870;6.160;2024-02-23T08:14:50;98917.78;;;7.86;100.00
4449;BME280;2237;51.870;6.160;2024-02-23T08:17:19;98928.69;;;8.13;100.00
4449;BME280;2237;51.870;6.160;2024-02-23T08:19:46;98903.09;;;8.25;100.00
4449;BME280;2237;51.870;6.160;2024-02-23T08:22:13;98896.31;;;8.23;100.00
4449;BME280;2237;51.870;6.160;2024-02-23T08:24:39;98898.44;;;8.13;100.00
4449;BME280;2237;51.870;6.160;2024-02-23T08:27:06;98905.63;;;8.47;100.00
4449;BME280;2237;51.870;6.160;2024-02-23T08:29:33;98895.81;;;8.35;100.00
4449;BME280;2237;51.870;6.160;2024-02-23T08:31:59;98911.00;;;8.42;100.00
4449;BME280;2237;51.870;6.160;2024-02-23T08:34:26;98891.31;;;8.38;100.00
4449;BME280;2237;51.870;6.160;2024-02-23T08:36:52;98879.00;;;8.43;100.00
4449;BME280;2237;51.870;6.160;2024-02-23T08:39:18;98879.00;;;8.43;100.00
4449;BME280;2237;51.870;6.160;2024-02-23T08:41:48;98892.94;;;8.41;100.00
4449;BME280;2237;51.870;6.160;2024-02-23T08:44:23;98898.25;;;8.38;100.00
4449;BME280;2237;51.870;6.160;2024-02-23T08:46:50;98876.69;;;8.56;100.00
4449;BME280;2237;51.870;6.160;2024-02-23T08:49:16;98876.06;;;8.70;100.00
4449;BME280;2237;51.870;6.160;2024-02-23T08:51:43;98888.97;;;8.90;100.00
4449;BME280;2237;51.870;6.160;2024-02-23T08:54:09;98888.03;;;9.09;100.00
4449;BME280;2237;51.870;6.160;2024-02-23T08:56:39;98887.44;;;9.22;100.00
4449;BME280;2237;51.870;6.160;2024-02-23T08:59:06;98875.00;;;9.28;100.00
4449;BME280;2237;51.870;6.160;2024-02-23T09:01:33;98871.72;;;9.25;100.00
4449;BME280;2237;51.870;6.160;2024-02-23T09:03:59;98888.47;;;9.36;100.00
4449;BME280;2237;51.870;6.160;2024-02-23T09:06:25;98891.38;;;9.47;100.00
4449;BME280;2237;51.870;6.160;2024-02-23T09:08:52;98878.56;;;9.61;100.00
4449;BME280;2237;51.870;6.160;2024-02-23T09:11:19;98879.16;;;9.49;100.00
4449;BME280;2237;51.870;6.160;2024-02-23T09:13:45;98882.16;;;9.59;100.00
4449;BME280;2237;51.870;6.160;2024-02-23T09:16:12;98878.84;;;9.38;100.00
4449;BME280;2237;51.870;6.160;2024-02-23T09:18:38;98883.72;;;9.44;100.00
4449;BME280;2237;51.870;6.160;2024-02-23T09:21:05;98883.28;;;9.53;100.00
4449;BME280;2237;51.870;6.160;2024-02-23T09:23:31;98868.91;;;9.46;100.00
4449;BME280;2237;51.870;6.160;2024-02-23T09:25:59;98867.72;;;9.18;100.00
4449;BME280;2237;51.870;6.160;2024-02-23T09:28:26;98877.19;;;9.19;100.00
4449;BME280;2237;51.870;6.160;2024-02-23T09:30:52;98885.13;;;9.16;100.00
4449;BME280;2237;51.870;6.160;2024-02-23T09:33:21;98878.97;;;9.35;100.00
4449;BME280;2237;51.870;6.160;2024-02-23T09:35:47;98896.03;;;9.41;100.00
4449;BME280;2237;51.870;6.160;2024-02-23T09:38:14;98877.03;;;9.57;100.00
4449;BME280;2237;51.870;6.160;2024-02-23T09:40:41;98876.88;;;9.78;100.00
4449;BME280;2237;51.870;6.160;2024-02-23T09:43:07;98892.66;;;9.39;100.00
4449;BME280;2237;51.870;6.160;2024-02-23T09:45:34;98877.78;;;9.59;100.00
4449;BME280;2237;51.870;6.160;2024-02-23T09:48:02;98883.59;;;9.47;100.00
4449;BME280;2237;51.870;6.160;2024-02-23T09:50:30;98889.06;;;9.41;100.00
4449;BME280;2237;51.870;6.160;2024-02-23T09:52:58;98895.81;;;9.45;100.00
4449;BME280;2237;51.870;6.160;2024-02-23T09:55:25;98892.19;;;9.31;100.00
4449;BME280;2237;51.870;6.160;2024-02-23T09:57:54;98882.81;;;9.28;100.00
4449;BME280;2237;51.870;6.160;2024-02-23T10:00:23;98888.59;;;9.16;100.00
4449;BME280;2237;51.870;6.160;2024-02-23T10:02:50;98901.41;;;9.19;100.00
4449;BME280;2237;51.870;6.160;2024-02-23T10:05:17;98886.84;;;8.98;100.00
4449;BME280;2237;51.870;6.160;2024-02-23T10:07:43;98905.75;;;9.19;100.00
4449;BME280;2237;51.870;6.160;2024-02-23T10:10:11;98896.38;;;8.97;100.00
4449;BME280;2237;51.870;6.160;2024-02-23T10:12:37;98902.13;;;9.04;100.00
4449;BME280;2237;51.870;6.160;2024-02-23T10:15:04;98895.38;;;9.19;100.00
4449;BME280;2237;51.870;6.160;2024-02-23T10:17:31;98899.16;;;9.30;100.00
4449;BME280;2237;51.870;6.160;2024-02-23T10:20:02;98925.88;;;9.32;100.00
4449;BME280;2237;51.870;6.160;2024-02-23T10:22:31;98902.97;;;9.04;100.00
4449;BME280;2237;51.870;6.160;2024-02-23T10:24:57;98918.78;;;9.36;100.00
4449;BME280;2237;51.870;6.160;2024-02-23T10:27:24;98928.81;;;9.43;100.00
4449;BME280;2237;51.870;6.160;2024-02-23T10:29:50;98924.31;;;9.47;100.00
4449;BME280;2237;51.870;6.160;2024-02-23T10:32:18;98923.44;;;9.65;100.00
4449;BME280;2237;51.870;6.160;2024-02-23T10:34:48;98925.09;;;9.49;100.00
4449;BME280;2237;51.870;6.160;2024-02-23T10:37:16;98927.34;;;9.38;100.00
4449;BME280;2237;51.870;6.160;2024-02-23T10:39:43;98922.84;;;9.41;100.00
4449;BME280;2237;51.870;6.160;2024-02-23T10:42:12;98934.34;;;9.54;100.00
4449;BME280;2237;51.870;6.160;2024-02-23T10:44:39;98945.03;;;9.48;100.00
4449;BME280;2237;51.870;6.160;2024-02-23T10:47:06;98948.25;;;9.53;100.00
4449;BME280;2237;51.870;6.160;2024-02-23T10:49:34;98955.63;;;9.44;100.00
4449;BME280;2237;51.870;6.160;2024-02-23T10:52:01;98949.34;;;9.31;100.00
4449;BME280;2237;51.870;6.160;2024-02-23T10:54:29;98962.19;;;9.34;100.00
4449;BME280;2237;51.870;6.160;2024-02-23T10:56:57;98967.25;;;9.18;100.00
4449;BME280;2237;51.870;6.160;2024-02-23T10:59:24;98981.69;;;9.24;100.00
4449;BME280;2237;51.870;6.160;2024-02-23T11:01:52;98976.38;;;9.08;100.00
4449;BME280;2237;51.870;6.160;2024-02-23T11:04:23;98964.38;;;9.24;100.00
4449;BME280;2237;51.870;6.160;2024-02-23T11:06:52;98972.31;;;9.21;100.00
4449;BME280;2237;51.870;6.160;2024-02-23T11:09:21;98978.31;;;9.40;100.00
4449;BME280;2237;51.870;6.160;2024-02-23T11:11:55;98985.84;;;9.28;100.00
4449;BME280;2237;51.870;6.160;2024-02-23T11:14:30;98966.69;;;9.30;100.00
4449;BME280;2237;51.870;6.160;2024-02-23T11:16:58;98971.16;;;9.45;100.00
4449;BME280;2237;51.870;6.160;2024-02-23T11:19:36;98985.19;;;9.41;100.00
4449;BME280;2237;51.870;6.160;2024-02-23T11:22:04;98976.75;;;9.55;100.00
4449;BME280;2237;51.870;6.160;2024-02-23T11:24:33;98976.22;;;9.48;100.00
4449;BME280;2237;51.870;6.160;2024-02-23T11:27:00;98972.34;;;9.57;100.00
4449;BME280;2237;51.870;6.160;2024-02-23T11:29:34;98973.13;;;9.40;100.00
4449;BME280;2237;51.870;6.160;2024-02-23T11:32:02;98978.69;;;9.51;100.00
4449;BME280;2237;51.870;6.160;2024-02-23T11:34:30;98975.63;;;9.60;100.00
4449;BME280;2237;51.870;6.160;2024-02-23T11:36:57;98980.97;;;9.57;100.00
4449;BME280;2237;51.870;6.160;2024-02-23T11:39:26;98973.94;;;9.59;100.00
4449;BME280;2237;51.870;6.160;2024-02-23T11:41:52;98979.34;;;9.55;100.00
4449;BME280;2237;51.870;6.160;2024-02-23T11:44:19;98988.69;;;9.40;100.00
4449;BME280;2237;51.870;6.160;2024-02-23T11:46:46;98979.28;;;9.56;100.00
4449;BME280;2237;51.870;6.160;2024-02-23T11:49:16;98986.47;;;9.51;100.00
4449;BME280;2237;51.870;6.160;2024-02-23T11:51:42;98977.31;;;9.61;100.00
4449;BME280;2237;51.870;6.160;2024-02-23T11:54:09;98972.19;;;9.60;100.00
4449;BME280;2237;51.870;6.160;2024-02-23T11:56:36;98975.47;;;9.63;100.00
4449;BME280;2237;51.870;6.160;2024-02-23T11:59:02;98978.00;;;9.65;100.00
4449;BME280;2237;51.870;6.160;2024-02-23T12:01:30;98979.69;;;9.66;100.00
4449;BME280;2237;51.870;6.160;2024-02-23T12:03:57;98988.25;;;9.68;100.00
4449;BME280;2237;51.870;6.160;2024-02-23T12:06:23;98981.69;;;9.78;100.00
4449;BME280;2237;51.870;6.160;2024-02-23T12:08:50;98985.38;;;10.27;100.00
4449;BME280;2237;51.870;6.160;2024-02-23T12:11:17;98970.34;;;10.49;100.00
4449;BME280;2237;51.870;6.160;2024-02-23T12:13:44;98979.31;;;10.76;100.00
4449;BME280;2237;51.870;6.160;2024-02-23T12:16:11;98991.75;;;10.54;100.00
4449;BME280;2237;51.870;6.160;2024-02-23T12:18:38;98993.41;;;10.72;100.00
4449;BME280;2237;51.870;6.160;2024-02-23T12:21:05;98990.00;;;10.88;100.00
4449;BME280;2237;51.870;6.160;2024-02-23T12:23:42;98989.59;;;10.80;100.00
4449;BME280;2237;51.870;6.160;2024-02-23T12:26:14;98987.88;;;10.46;100.00
4449;BME280;2237;51.870;6.160;2024-02-23T12:28:41;98991.03;;;10.35;100.00
4449;BME280;2237;51.870;6.160;2024-02-23T12:31:08;98989.25;;;10.53;100.00
4449;BME280;2237;51.870;6.160;2024-02-23T12:33:36;98975.78;;;10.77;100.00
4449;BME280;2237;51.870;6.160;2024-02-23T12:36:04;98983.31;;;10.66;100.00
4449;BME280;2237;51.870;6.160;2024-02-23T12:38:31;98983.94;;;10.54;100.00
4449;BME280;2237;51.870;6.160;2024-02-23T12:40:59;98996.59;;;10.45;100.00
4449;BME280;2237;51.870;6.160;2024-02-23T12:43:26;98981.28;;;10.21;100.00
4449;BME280;2237;51.870;6.160;2024-02-23T12:45:53;98981.22;;;10.40;100.00
4449;BME280;2237;51.870;6.160;2024-02-23T12:48:23;98999.28;;;10.43;100.00
4449;BME280;2237;51.870;6.160;2024-02-23T12:50:51;98975.09;;;10.41;100.00
4449;BME280;2237;51.870;6.160;2024-02-23T12:56:11;98993.31;;;10.24;100.00
4449;BME280;2237;51.870;6.160;2024-02-23T12:58:43;98987.28;;;10.24;100.00
4449;BME280;2237;51.870;6.160;2024-02-23T13:01:10;98995.78;;;10.27;100.00
4449;BME280;2237;51.870;6.160;2024-02-23T13:03:38;99002.44;;;10.33;100.00
4449;BME280;2237;51.870;6.160;2024-02-23T13:06:06;98993.91;;;10.46;100.00
4449;BME280;2237;51.870;6.160;2024-02-23T13:08:33;98991.81;;;10.70;100.00
4449;BME280;2237;51.870;6.160;2024-02-23T13:11:00;98999.44;;;11.06;100.00
4449;BME280;2237;51.870;6.160;2024-02-23T13:13:28;99001.41;;;11.33;100.00
4449;BME280;2237;51.870;6.160;2024-02-23T13:15:55;99000.66;;;11.78;100.00
4449;BME280;2237;51.870;6.160;2024-02-23T13:18:21;99007.72;;;11.61;100.00
4449;BME280;2237;51.870;6.160;2024-02-23T13:20:48;99006.22;;;11.57;100.00
4449;BME280;2237;51.870;6.160;2024-02-23T13:23:15;99019.19;;;11.10;100.00